sensor_id;sensor_type;location;lat;lon;timestamp;temperature;humidity
36352;DHT22;22382;44.768;17.206;2022-10-16T00:01:28;11.50;99.90
36352;DHT22;22382;44.768;17.206;2022-10-16T00:03:56;11.40;99.90
36352;DHT22;22382;44.768;17.206;2022-10-16T00:06:24;11.50;99.90
36352;DHT22;22382;44.768;17.206;2022-10-16T00:08:52;11.50;99.90
36352;DHT22;22382;44.768;17.206;2022-10-16T00:11:25;11.50;99.90
36352;DHT22;22382;44.768;17.206;2022-10-16T00:13:56;11.50;99.90
36352;DHT22;22382;44.768;17.206;2022-10-16T00:16:23;11.50;99.90
36352;DHT22;22382;44.768;17.206;2022-10-16T00:18:50;11.50;99.90
36352;DHT22;22382;44.768;17.206;2022-10-16T00:21:20;11.40;99.90
36352;DHT22;22382;44.768;17.206;2022-10-16T00:23:51;11.40;99.90
36352;DHT22;22382;44.768;17.206;2022-10-16T00:26:18;11.30;99.90
36352;DHT22;22382;44.768;17.206;2022-10-16T00:28:49;11.30;99.90
36352;DHT22;22382;44.768;17.206;2022-10-16T00:31:17;11.30;99.90
36352;DHT22;22382;44.768;17.206;2022-10-16T00:33:45;11.30;99.90
36352;DHT22;22382;44.768;17.206;2022-10-16T00:36:14;11.30;99.90
36352;DHT22;22382;44.768;17.206;2022-10-16T00:38:42;11.30;99.90
36352;DHT22;22382;44.768;17.206;2022-10-16T00:41:15;11.30;99.90
36352;DHT22;22382;44.768;17.206;2022-10-16T00:43:43;11.30;99.90
36352;DHT22;22382;44.768;17.206;2022-10-16T00:49:18;11.30;99.90
36352;DHT22;22382;44.768;17.206;2022-10-16T00:51:45;11.20;99.90
36352;DHT22;22382;44.768;17.206;2022-10-16T00:54:17;11.10;99.90
36352;DHT22;22382;44.768;17.206;2022-10-16T00:56:46;11.20;99.90
36352;DHT22;22382;44.768;17.206;2022-10-16T00:59:25;11.20;99.90
36352;DHT22;22382;44.768;17.206;2022-10-16T01:01:53;11.20;99.90
36352;DHT22;22382;44.768;17.206;2022-10-16T01:04:21;11.20;99.90
36352;DHT22;22382;44.768;17.206;2022-10-16T01:07:23;11.10;99.90
36352;DHT22;22382;44.768;17.206;2022-10-16T01:15:25;11.00;99.90
36352;DHT22;22382;44.768;17.206;2022-10-16T01:20:39;11.10;99.90
36352;DHT22;22382;44.768;17.206;2022-10-16T01:31:48;11.00;99.90
36352;DHT22;22382;44.768;17.206;2022-10-16T01:34:18;11.00;99.90
36352;DHT22;22382;44.768;17.206;2022-10-16T01:36:52;11.00;99.90
36352;DHT22;22382;44.768;17.206;2022-10-16T01:39:22;10.90;99.90
36352;DHT22;22382;44.768;17.206;2022-10-16T01:42:16;10.90;99.90
36352;DHT22;22382;44.768;17.206;2022-10-16T01:44:47;10.90;99.90
36352;DHT22;22382;44.768;17.206;2022-10-16T01:47:15;10.90;99.90
36352;DHT22;22382;44.768;17.206;2022-10-16T01:49:45;10.90;99.90
36352;DHT22;22382;44.768;17.206;2022-10-16T01:52:18;10.90;99.90
36352;DHT22;22382;44.768;17.206;2022-10-16T01:54:49;10.90;99.90
36352;DHT22;22382;44.768;17.206;2022-10-16T01:57:18;10.90;99.90
36352;DHT22;22382;44.768;17.206;2022-10-16T01:59:48;10.90;99.90
36352;DHT22;22382;44.768;17.206;2022-10-16T02:02:17;10.90;99.90
36352;DHT22;22382;44.768;17.206;2022-10-16T02:04:49;10.90;99.90
36352;DHT22;22382;44.768;17.206;2022-10-16T02:07:18;10.80;99.90
36352;DHT22;22382;44.768;17.206;2022-10-16T02:09:45;10.80;99.90
36352;DHT22;22382;44.768;17.206;2022-10-16T02:12:26;10.80;99.90
36352;DHT22;22382;44.768;17.206;2022-10-16T02:14:54;10.90;99.90
36352;DHT22;22382;44.768;17.206;2022-10-16T02:17:21;10.90;99.90
36352;DHT22;22382;44.768;17.206;2022-10-16T02:19:50;10.80;99.90
36352;DHT22;22382;44.768;17.206;2022-10-16T02:22:34;10.80;99.90
36352;DHT22;22382;44.768;17.206;2022-10-16T02:25:08;10.70;99.90
36352;DHT22;22382;44.768;17.206;2022-10-16T02:30:21;10.70;99.90
36352;DHT22;22382;44.768;17.206;2022-10-16T02:32:51;10.60;99.90
36352;DHT22;22382;44.768;17.206;2022-10-16T02:35:20;10.60;99.90
36352;DHT22;22382;44.768;17.206;2022-10-16T02:37:48;10.60;99.90
36352;DHT22;22382;44.768;17.206;2022-10-16T02:40:17;10.60;99.90
36352;DHT22;22382;44.768;17.206;2022-10-16T02:42:51;10.70;99.90
36352;DHT22;22382;44.768;17.206;2022-10-16T02:45:19;10.60;99.90
36352;DHT22;22382;44.768;17.206;2022-10-16T02:47:46;10.60;99.90
36352;DHT22;22382;44.768;17.206;2022-10-16T02:50:13;10.60;99.90
36352;DHT22;22382;44.768;17.206;2022-10-16T02:52:41;10.60;99.90
36352;DHT22;22382;44.768;17.206;2022-10-16T02:55:08;10.60;99.90
36352;DHT22;22382;44.768;17.206;2022-10-16T02:57:35;10.60;99.90
36352;DHT22;22382;44.768;17.206;2022-10-16T03:00:04;10.60;99.90
36352;DHT22;22382;44.768;17.206;2022-10-16T03:02:31;10.50;99.90
36352;DHT22;22382;44.768;17.206;2022-10-16T03:04:58;10.40;99.90
36352;DHT22;22382;44.768;17.206;2022-10-16T03:07:25;10.40;99.90
36352;DHT22;22382;44.768;17.206;2022-10-16T03:09:53;10.40;99.90
36352;DHT22;22382;44.768;17.206;2022-10-16T03:12:21;10.40;99.90
36352;DHT22;22382;44.768;17.206;2022-10-16T03:14:48;10.40;99.90
36352;DHT22;22382;44.768;17.206;2022-10-16T03:17:15;10.50;99.90
36352;DHT22;22382;44.768;17.206;2022-10-16T03:19:43;10.40;99.90
36352;DHT22;22382;44.768;17.206;2022-10-16T03:22:10;10.40;99.90
36352;DHT22;22382;44.768;17.206;2022-10-16T03:24:37;10.40;99.90
36352;DHT22;22382;44.768;17.206;2022-10-16T03:27:05;10.30;99.90
36352;DHT22;22382;44.768;17.206;2022-10-16T03:29:32;10.40;99.90
36352;DHT22;22382;44.768;17.206;2022-10-16T03:31:59;10.40;99.90
36352;DHT22;22382;44.768;17.206;2022-10-16T03:34:26;10.30;99.90
36352;DHT22;22382;44.768;17.206;2022-10-16T03:36:54;10.30;99.90
36352;DHT22;22382;44.768;17.206;2022-10-16T03:39:21;10.20;99.90
36352;DHT22;22382;44.768;17.206;2022-10-16T03:41:48;10.20;99.90
36352;DHT22;22382;44.768;17.206;2022-10-16T03:44:15;10.20;99.90
36352;DHT22;22382;44.768;17.206;2022-10-16T03:46:42;10.30;99.90
36352;DHT22;22382;44.768;17.206;2022-10-16T03:49:09;10.20;99.90
36352;DHT22;22382;44.768;17.206;2022-10-16T03:51:36;10.30;99.90
36352;DHT22;22382;44.768;17.206;2022-10-16T03:54:03;10.30;99.90
36352;DHT22;22382;44.768;17.206;2022-10-16T03:56:30;10.10;99.90
36352;DHT22;22382;44.768;17.206;2022-10-16T03:58:57;10.10;99.90
36352;DHT22;22382;44.768;17.206;2022-10-16T04:01:24;10.10;99.90
36352;DHT22;22382;44.768;17.206;2022-10-16T04:03:51;10.00;99.90
36352;DHT22;22382;44.768;17.206;2022-10-16T04:06:18;10.00;99.90
36352;DHT22;22382;44.768;17.206;2022-10-16T04:08:45;9.90;99.90
36352;DHT22;22382;44.768;17.206;2022-10-16T04:11:12;9.90;99.90
36352;DHT22;22382;44.768;17.206;2022-10-16T04:13:39;9.90;99.90
36352;DHT22;22382;44.768;17.206;2022-10-16T04:16:06;9.90;99.90
36352;DHT22;22382;44.768;17.206;2022-10-16T04:18:33;9.90;99.90
36352;DHT22;22382;44.768;17.206;2022-10-16T04:21:05;9.80;99.90
36352;DHT22;22382;44.768;17.206;2022-10-16T04:23:32;9.90;99.90
36352;DHT22;22382;44.768;17.206;2022-10-16T04:26:00;9.90;99.90
36352;DHT22;22382;44.768;17.206;2022-10-16T04:28:27;9.80;99.90
36352;DHT22;22382;44.768;17.206;2022-10-16T04:30:55;9.70;99.90
36352;DHT22;22382;44.768;17.206;2022-10-16T04:33:22;9.70;99.90
36352;DHT22;22382;44.768;17.206;2022-10-16T04:35:56;9.70;99.90
36352;DHT22;22382;44.768;17.206;2022-10-16T04:38:23;9.70;99.90
36352;DHT22;22382;44.768;17.206;2022-10-16T04:40:51;9.80;99.90
36352;DHT22;22382;44.768;17.206;2022-10-16T04:43:18;9.80;99.90
36352;DHT22;22382;44.768;17.206;2022-10-16T04:45:45;9.80;99.90
36352;DHT22;22382;44.768;17.206;2022-10-16T04:48:12;9.90;99.90
36352;DHT22;22382;44.768;17.206;2022-10-16T04:50:39;9.90;99.90
36352;DHT22;22382;44.768;17.206;2022-10-16T04:53:07;9.90;99.90
36352;DHT22;22382;44.768;17.206;2022-10-16T04:55:34;9.80;99.90
36352;DHT22;22382;44.768;17.206;2022-10-16T04:58:01;9.80;99.90
36352;DHT22;22382;44.768;17.206;2022-10-16T05:00:28;9.80;99.90
36352;DHT22;22382;44.768;17.206;2022-10-16T05:02:55;9.80;99.90
36352;DHT22;22382;44.768;17.206;2022-10-16T05:05:22;9.80;99.90
36352;DHT22;22382;44.768;17.206;2022-10-16T05:07:49;9.80;99.90
36352;DHT22;22382;44.768;17.206;2022-10-16T05:10:16;9.80;99.90
36352;DHT22;22382;44.768;17.206;2022-10-16T05:12:43;9.90;99.90
36352;DHT22;22382;44.768;17.206;2022-10-16T05:15:10;10.00;99.90
36352;DHT22;22382;44.768;17.206;2022-10-16T05:17:38;9.90;99.90
36352;DHT22;22382;44.768;17.206;2022-10-16T05:20:11;9.90;99.90
36352;DHT22;22382;44.768;17.206;2022-10-16T05:22:38;9.90;99.90
36352;DHT22;22382;44.768;17.206;2022-10-16T05:25:05;10.00;99.90
36352;DHT22;22382;44.768;17.206;2022-10-16T05:27:32;9.90;99.90
36352;DHT22;22382;44.768;17.206;2022-10-16T05:29:59;10.00;99.90
36352;DHT22;22382;44.768;17.206;2022-10-16T05:32:26;10.00;99.90
36352;DHT22;22382;44.768;17.206;2022-10-16T05:34:53;10.00;99.90
36352;DHT22;22382;44.768;17.206;2022-10-16T05:37:20;10.10;99.90
36352;DHT22;22382;44.768;17.206;2022-10-16T05:39:47;10.10;99.90
36352;DHT22;22382;44.768;17.206;2022-10-16T05:42:14;10.20;99.90
36352;DHT22;22382;44.768;17.206;2022-10-16T05:44:41;10.20;99.90
36352;DHT22;22382;44.768;17.206;2022-10-16T05:47:08;10.20;99.90
36352;DHT22;22382;44.768;17.206;2022-10-16T05:49:35;10.20;99.90
36352;DHT22;22382;44.768;17.206;2022-10-16T05:52:06;10.40;99.90
36352;DHT22;22382;44.768;17.206;2022-10-16T05:54:33;10.40;99.90
36352;DHT22;22382;44.768;17.206;2022-10-16T05:57:00;10.50;99.90
36352;DHT22;22382;44.768;17.206;2022-10-16T05:59:28;10.70;99.90
36352;DHT22;22382;44.768;17.206;2022-10-16T06:01:56;10.70;99.90
36352;DHT22;22382;44.768;17.206;2022-10-16T06:04:23;10.90;99.90
36352;DHT22;22382;44.768;17.206;2022-10-16T06:06:50;10.90;99.90
36352;DHT22;22382;44.768;17.206;2022-10-16T06:09:17;11.00;99.90
36352;DHT22;22382;44.768;17.206;2022-10-16T06:11:44;11.10;99.90
36352;DHT22;22382;44.768;17.206;2022-10-16T06:14:11;11.10;99.90
36352;DHT22;22382;44.768;17.206;2022-10-16T06:16:38;11.20;99.90
36352;DHT22;22382;44.768;17.206;2022-10-16T06:19:06;11.30;99.90
36352;DHT22;22382;44.768;17.206;2022-10-16T06:21:34;11.40;99.90
36352;DHT22;22382;44.768;17.206;2022-10-16T06:24:01;11.60;99.90
36352;DHT22;22382;44.768;17.206;2022-10-16T06:26:30;11.70;99.90
36352;DHT22;22382;44.768;17.206;2022-10-16T06:28:58;11.80;99.90
36352;DHT22;22382;44.768;17.206;2022-10-16T06:31:27;11.90;99.90
36352;DHT22;22382;44.768;17.206;2022-10-16T06:33:54;12.00;99.90
36352;DHT22;22382;44.768;17.206;2022-10-16T06:36:22;12.00;99.90
36352;DHT22;22382;44.768;17.206;2022-10-16T06:38:49;12.20;99.90
36352;DHT22;22382;44.768;17.206;2022-10-16T06:41:18;12.30;99.90
36352;DHT22;22382;44.768;17.206;2022-10-16T06:43:46;12.40;99.90
36352;DHT22;22382;44.768;17.206;2022-10-16T06:46:16;12.50;99.90
36352;DHT22;22382;44.768;17.206;2022-10-16T06:48:43;12.60;99.90
36352;DHT22;22382;44.768;17.206;2022-10-16T06:51:21;12.70;99.90
36352;DHT22;22382;44.768;17.206;2022-10-16T06:53:51;12.80;99.90
36352;DHT22;22382;44.768;17.206;2022-10-16T06:56:34;12.80;99.90
36352;DHT22;22382;44.768;17.206;2022-10-16T06:59:02;12.80;99.90
36352;DHT22;22382;44.768;17.206;2022-10-16T07:01:30;12.90;99.90
36352;DHT22;22382;44.768;17.206;2022-10-16T07:03:58;13.10;99.90
36352;DHT22;22382;44.768;17.206;2022-10-16T07:06:25;13.30;99.90
36352;DHT22;22382;44.768;17.206;2022-10-16T07:08:53;13.20;99.90
36352;DHT22;22382;44.768;17.206;2022-10-16T07:11:22;13.40;99.90
36352;DHT22;22382;44.768;17.206;2022-10-16T07:13:50;13.50;99.90
36352;DHT22;22382;44.768;17.206;2022-10-16T07:16:24;13.70;99.90
36352;DHT22;22382;44.768;17.206;2022-10-16T07:18:52;13.90;99.90
36352;DHT22;22382;44.768;17.206;2022-10-16T07:21:26;14.00;99.90
36352;DHT22;22382;44.768;17.206;2022-10-16T07:23:55;14.20;99.90
36352;DHT22;22382;44.768;17.206;2022-10-16T07:26:23;14.30;99.90
36352;DHT22;22382;44.768;17.206;2022-10-16T07:28:50;14.50;99.90
36352;DHT22;22382;44.768;17.206;2022-10-16T07:31:19;14.60;99.90
36352;DHT22;22382;44.768;17.206;2022-10-16T07:33:47;14.70;99.90
36352;DHT22;22382;44.768;17.206;2022-10-16T07:36:19;14.90;99.90
36352;DHT22;22382;44.768;17.206;2022-10-16T07:38:46;14.80;99.90
36352;DHT22;22382;44.768;17.206;2022-10-16T07:41:16;15.00;99.90
36352;DHT22;22382;44.768;17.206;2022-10-16T07:43:48;15.20;99.90
36352;DHT22;22382;44.768;17.206;2022-10-16T07:46:16;15.30;99.90
36352;DHT22;22382;44.768;17.206;2022-10-16T07:48:44;15.10;99.90
36352;DHT22;22382;44.768;17.206;2022-10-16T07:51:16;15.10;99.90
36352;DHT22;22382;44.768;17.206;2022-10-16T07:53:43;15.30;99.90
36352;DHT22;22382;44.768;17.206;2022-10-16T07:56:11;15.50;99.90
36352;DHT22;22382;44.768;17.206;2022-10-16T07:58:38;15.70;99.90
36352;DHT22;22382;44.768;17.206;2022-10-16T08:01:08;15.80;99.90
36352;DHT22;22382;44.768;17.206;2022-10-16T08:03:36;16.00;99.90
36352;DHT22;22382;44.768;17.206;2022-10-16T08:06:03;16.00;99.90
36352;DHT22;22382;44.768;17.206;2022-10-16T08:08:31;16.00;99.90
36352;DHT22;22382;44.768;17.206;2022-10-16T08:10:58;16.00;99.90
36352;DHT22;22382;44.768;17.206;2022-10-16T08:13:25;15.90;99.90
36352;DHT22;22382;44.768;17.206;2022-10-16T08:15:53;16.00;99.90
36352;DHT22;22382;44.768;17.206;2022-10-16T08:18:21;16.10;99.90
36352;DHT22;22382;44.768;17.206;2022-10-16T08:20:55;16.20;99.90
36352;DHT22;22382;44.768;17.206;2022-10-16T08:23:24;16.40;99.90
36352;DHT22;22382;44.768;17.206;2022-10-16T08:25:53;16.60;99.90
36352;DHT22;22382;44.768;17.206;2022-10-16T08:28:22;16.90;99.90
36352;DHT22;22382;44.768;17.206;2022-10-16T08:30:49;17.10;99.90
36352;DHT22;22382;44.768;17.206;2022-10-16T08:33:16;17.20;99.90
36352;DHT22;22382;44.768;17.206;2022-10-16T08:35:50;17.40;99.90
36352;DHT22;22382;44.768;17.206;2022-10-16T08:38:17;17.60;99.90
36352;DHT22;22382;44.768;17.206;2022-10-16T08:40:44;17.70;99.90
36352;DHT22;22382;44.768;17.206;2022-10-16T08:46:19;17.80;99.90
36352;DHT22;22382;44.768;17.206;2022-10-16T08:48:54;17.80;99.90
36352;DHT22;22382;44.768;17.206;2022-10-16T08:51:34;17.90;99.90
36352;DHT22;22382;44.768;17.206;2022-10-16T08:54:39;17.90;99.90
36352;DHT22;22382;44.768;17.206;2022-10-16T08:57:19;18.20;99.90
36352;DHT22;22382;44.768;17.206;2022-10-16T08:59:50;18.30;99.90
36352;DHT22;22382;44.768;17.206;2022-10-16T09:05:16;18.30;99.90
36352;DHT22;22382;44.768;17.206;2022-10-16T09:11:03;18.50;99.90
36352;DHT22;22382;44.768;17.206;2022-10-16T09:16:23;18.50;99.90
36352;DHT22;22382;44.768;17.206;2022-10-16T09:18:54;18.60;99.90
36352;DHT22;22382;44.768;17.206;2022-10-16T09:21:31;18.80;99.90
36352;DHT22;22382;44.768;17.206;2022-10-16T09:26:41;18.90;99.90
36352;DHT22;22382;44.768;17.206;2022-10-16T09:29:16;18.70;99.90
36352;DHT22;22382;44.768;17.206;2022-10-16T09:31:43;18.80;99.90
36352;DHT22;22382;44.768;17.206;2022-10-16T09:34:39;18.70;99.90
36352;DHT22;22382;44.768;17.206;2022-10-16T09:37:14;18.80;99.90
36352;DHT22;22382;44.768;17.206;2022-10-16T09:39:46;18.90;99.90
36352;DHT22;22382;44.768;17.206;2022-10-16T09:42:34;19.10;99.90
36352;DHT22;22382;44.768;17.206;2022-10-16T09:45:03;19.20;99.90
36352;DHT22;22382;44.768;17.206;2022-10-16T09:47:31;19.20;99.90
36352;DHT22;22382;44.768;17.206;2022-10-16T09:50:05;19.40;99.90
36352;DHT22;22382;44.768;17.206;2022-10-16T09:52:41;19.60;99.90
36352;DHT22;22382;44.768;17.206;2022-10-16T09:55:17;19.60;99.90
36352;DHT22;22382;44.768;17.206;2022-10-16T09:57:51;19.60;99.90
36352;DHT22;22382;44.768;17.206;2022-10-16T10:00:19;19.60;99.90
36352;DHT22;22382;44.768;17.206;2022-10-16T10:02:47;19.80;99.90
36352;DHT22;22382;44.768;17.206;2022-10-16T10:05:28;20.00;99.90
36352;DHT22;22382;44.768;17.206;2022-10-16T10:08:03;20.00;99.90
36352;DHT22;22382;44.768;17.206;2022-10-16T10:10:42;19.90;99.90
36352;DHT22;22382;44.768;17.206;2022-10-16T10:13:20;19.90;99.90
36352;DHT22;22382;44.768;17.206;2022-10-16T10:15:48;20.00;99.90
36352;DHT22;22382;44.768;17.206;2022-10-16T10:18:21;20.30;99.90
36352;DHT22;22382;44.768;17.206;2022-10-16T10:21:00;20.30;99.90
36352;DHT22;22382;44.768;17.206;2022-10-16T10:23:29;20.10;99.90
36352;DHT22;22382;44.768;17.206;2022-10-16T10:29:06;20.40;99.90
36352;DHT22;22382;44.768;17.206;2022-10-16T10:31:51;20.60;99.90
36352;DHT22;22382;44.768;17.206;2022-10-16T10:34:42;20.40;99.90
36352;DHT22;22382;44.768;17.206;2022-10-16T10:46:00;20.90;99.90
36352;DHT22;22382;44.768;17.206;2022-10-16T10:51:11;20.50;99.90
36352;DHT22;22382;44.768;17.206;2022-10-16T10:54:04;20.70;99.90
36352;DHT22;22382;44.768;17.206;2022-10-16T10:59:19;21.10;99.90
36352;DHT22;22382;44.768;17.206;2022-10-16T11:02:18;21.20;99.90
36352;DHT22;22382;44.768;17.206;2022-10-16T11:08:06;21.30;99.90
36352;DHT22;22382;44.768;17.206;2022-10-16T11:13:24;21.20;99.90
36352;DHT22;22382;44.768;17.206;2022-10-16T11:15:57;21.30;99.30
36352;DHT22;22382;44.768;17.206;2022-10-16T11:21:35;21.30;99.20
36352;DHT22;22382;44.768;17.206;2022-10-16T11:26:49;21.50;99.90
36352;DHT22;22382;44.768;17.206;2022-10-16T11:29:28;21.30;96.90
36352;DHT22;22382;44.768;17.206;2022-10-16T11:32:10;21.50;97.50
36352;DHT22;22382;44.768;17.206;2022-10-16T11:34:49;21.50;96.40
36352;DHT22;22382;44.768;17.206;2022-10-16T11:37:25;21.70;94.10
36352;DHT22;22382;44.768;17.206;2022-10-16T11:39:59;21.60;96.20
36352;DHT22;22382;44.768;17.206;2022-10-16T11:42:37;21.60;96.80
36352;DHT22;22382;44.768;17.206;2022-10-16T11:56:07;21.60;93.60
36352;DHT22;22382;44.768;17.206;2022-10-16T11:58:45;21.60;93.30
36352;DHT22;22382;44.768;17.206;2022-10-16T12:09:00;21.90;90.10
36352;DHT22;22382;44.768;17.206;2022-10-16T12:16:55;22.40;91.50
36352;DHT22;22382;44.768;17.206;2022-10-16T12:19:24;22.20;84.40
36352;DHT22;22382;44.768;17.206;2022-10-16T12:21:52;22.20;83.30
36352;DHT22;22382;44.768;17.206;2022-10-16T12:26:58;22.40;80.10
36352;DHT22;22382;44.768;17.206;2022-10-16T12:29:39;22.40;80.80
36352;DHT22;22382;44.768;17.206;2022-10-16T12:32:42;22.40;83.90
36352;DHT22;22382;44.768;17.206;2022-10-16T12:35:22;22.30;85.50
36352;DHT22;22382;44.768;17.206;2022-10-16T12:37:51;22.10;85.20
36352;DHT22;22382;44.768;17.206;2022-10-16T12:40:33;22.20;87.50
36352;DHT22;22382;44.768;17.206;2022-10-16T12:43:11;22.40;85.10
36352;DHT22;22382;44.768;17.206;2022-10-16T12:45:38;22.20;83.50
36352;DHT22;22382;44.768;17.206;2022-10-16T12:48:19;22.50;82.30
36352;DHT22;22382;44.768;17.206;2022-10-16T12:50:47;22.60;81.40
36352;DHT22;22382;44.768;17.206;2022-10-16T12:53:25;22.60;85.10
36352;DHT22;22382;44.768;17.206;2022-10-16T12:56:22;22.60;81.50
36352;DHT22;22382;44.768;17.206;2022-10-16T13:04:41;22.50;81.30
36352;DHT22;22382;44.768;17.206;2022-10-16T13:10:32;22.50;83.30
36352;DHT22;22382;44.768;17.206;2022-10-16T13:26:41;22.70;77.60
36352;DHT22;22382;44.768;17.206;2022-10-16T13:29:10;22.60;78.30
36352;DHT22;22382;44.768;17.206;2022-10-16T13:31:38;22.50;77.50
36352;DHT22;22382;44.768;17.206;2022-10-16T13:34:06;22.40;76.80
36352;DHT22;22382;44.768;17.206;2022-10-16T13:36:46;22.40;76.30
36352;DHT22;22382;44.768;17.206;2022-10-16T13:39:28;22.30;77.30
36352;DHT22;22382;44.768;17.206;2022-10-16T13:42:04;22.20;77.40
36352;DHT22;22382;44.768;17.206;2022-10-16T13:44:42;22.20;78.90
36352;DHT22;22382;44.768;17.206;2022-10-16T13:47:22;22.30;78.60
36352;DHT22;22382;44.768;17.206;2022-10-16T13:50:11;22.30;77.30
36352;DHT22;22382;44.768;17.206;2022-10-16T13:52:39;22.30;77.10
36352;DHT22;22382;44.768;17.206;2022-10-16T13:55:16;22.30;78.60
36352;DHT22;22382;44.768;17.206;2022-10-16T13:57:43;22.20;78.80
36352;DHT22;22382;44.768;17.206;2022-10-16T14:00:23;22.20;79.30
36352;DHT22;22382;44.768;17.206;2022-10-16T14:02:58;22.20;78.80
36352;DHT22;22382;44.768;17.206;2022-10-16T14:05:28;22.10;79.60
36352;DHT22;22382;44.768;17.206;2022-10-16T14:07:56;22.10;78.50
36352;DHT22;22382;44.768;17.206;2022-10-16T14:10:30;22.20;77.90
36352;DHT22;22382;44.768;17.206;2022-10-16T14:13:03;22.10;79.70
36352;DHT22;22382;44.768;17.206;2022-10-16T14:15:32;22.10;81.70
36352;DHT22;22382;44.768;17.206;2022-10-16T14:18:01;22.00;81.10
36352;DHT22;22382;44.768;17.206;2022-10-16T14:20:32;22.00;83.50
36352;DHT22;22382;44.768;17.206;2022-10-16T14:23:04;22.00;87.70
36352;DHT22;22382;44.768;17.206;2022-10-16T14:25:44;22.00;84.80
36352;DHT22;22382;44.768;17.206;2022-10-16T14:28:22;21.90;84.70
36352;DHT22;22382;44.768;17.206;2022-10-16T14:30:58;21.90;85.70
36352;DHT22;22382;44.768;17.206;2022-10-16T14:38:38;21.80;89.20
36352;DHT22;22382;44.768;17.206;2022-10-16T14:41:06;21.80;86.50
36352;DHT22;22382;44.768;17.206;2022-10-16T14:46:15;21.80;87.20
36352;DHT22;22382;44.768;17.206;2022-10-16T14:48:46;21.70;85.40
36352;DHT22;22382;44.768;17.206;2022-10-16T14:51:18;21.70;85.30
36352;DHT22;22382;44.768;17.206;2022-10-16T14:53:46;21.60;89.00
36352;DHT22;22382;44.768;17.206;2022-10-16T14:59:23;21.50;88.50
36352;DHT22;22382;44.768;17.206;2022-10-16T15:01:51;21.50;87.90
36352;DHT22;22382;44.768;17.206;2022-10-16T15:04:18;21.40;88.00
36352;DHT22;22382;44.768;17.206;2022-10-16T15:06:45;21.30;89.90
36352;DHT22;22382;44.768;17.206;2022-10-16T15:09:12;21.30;90.20
36352;DHT22;22382;44.768;17.206;2022-10-16T15:11:40;21.30;90.60
36352;DHT22;22382;44.768;17.206;2022-10-16T15:14:14;21.20;91.80
36352;DHT22;22382;44.768;17.206;2022-10-16T15:16:46;21.10;94.00
36352;DHT22;22382;44.768;17.206;2022-10-16T15:19:13;21.00;94.20
36352;DHT22;22382;44.768;17.206;2022-10-16T15:21:40;21.00;94.40
36352;DHT22;22382;44.768;17.206;2022-10-16T15:24:11;20.90;96.30
36352;DHT22;22382;44.768;17.206;2022-10-16T15:26:43;20.70;97.80
36352;DHT22;22382;44.768;17.206;2022-10-16T15:29:13;20.60;99.40
36352;DHT22;22382;44.768;17.206;2022-10-16T15:31:40;20.50;99.90
36352;DHT22;22382;44.768;17.206;2022-10-16T15:34:09;20.40;99.90
36352;DHT22;22382;44.768;17.206;2022-10-16T15:36:37;20.20;99.90
36352;DHT22;22382;44.768;17.206;2022-10-16T15:39:10;20.10;99.90
36352;DHT22;22382;44.768;17.206;2022-10-16T15:41:38;20.00;99.90
36352;DHT22;22382;44.768;17.206;2022-10-16T15:44:10;19.80;99.90
36352;DHT22;22382;44.768;17.206;2022-10-16T15:46:37;19.60;99.90
36352;DHT22;22382;44.768;17.206;2022-10-16T15:49:04;19.50;99.90
36352;DHT22;22382;44.768;17.206;2022-10-16T15:51:31;19.30;99.90
36352;DHT22;22382;44.768;17.206;2022-10-16T15:54:00;19.10;99.90
36352;DHT22;22382;44.768;17.206;2022-10-16T15:56:28;19.00;99.90
36352;DHT22;22382;44.768;17.206;2022-10-16T15:58:55;18.90;99.90
36352;DHT22;22382;44.768;17.206;2022-10-16T16:01:25;18.70;99.90
36352;DHT22;22382;44.768;17.206;2022-10-16T16:03:55;18.60;99.90
36352;DHT22;22382;44.768;17.206;2022-10-16T16:06:22;18.40;99.90
36352;DHT22;22382;44.768;17.206;2022-10-16T16:08:52;18.30;99.90
36352;DHT22;22382;44.768;17.206;2022-10-16T16:11:19;18.10;99.90
36352;DHT22;22382;44.768;17.206;2022-10-16T16:13:46;18.00;99.90
36352;DHT22;22382;44.768;17.206;2022-10-16T16:16:15;17.90;99.90
36352;DHT22;22382;44.768;17.206;2022-10-16T16:18:44;17.80;99.90
36352;DHT22;22382;44.768;17.206;2022-10-16T16:21:13;17.70;99.90
36352;DHT22;22382;44.768;17.206;2022-10-16T16:23:40;17.60;99.90
36352;DHT22;22382;44.768;17.206;2022-10-16T16:26:18;17.50;99.90
36352;DHT22;22382;44.768;17.206;2022-10-16T16:28:50;17.40;99.90
36352;DHT22;22382;44.768;17.206;2022-10-16T16:31:17;17.30;99.90
36352;DHT22;22382;44.768;17.206;2022-10-16T16:33:44;17.20;99.90
36352;DHT22;22382;44.768;17.206;2022-10-16T16:36:12;17.20;99.90
36352;DHT22;22382;44.768;17.206;2022-10-16T16:38:41;17.10;99.90
36352;DHT22;22382;44.768;17.206;2022-10-16T16:41:17;17.00;99.90
36352;DHT22;22382;44.768;17.206;2022-10-16T16:43:45;16.90;99.90
36352;DHT22;22382;44.768;17.206;2022-10-16T16:46:14;16.80;99.90
36352;DHT22;22382;44.768;17.206;2022-10-16T16:48:41;16.80;99.90
36352;DHT22;22382;44.768;17.206;2022-10-16T16:51:11;16.70;99.90
36352;DHT22;22382;44.768;17.206;2022-10-16T16:53:43;16.60;99.90
36352;DHT22;22382;44.768;17.206;2022-10-16T16:56:10;16.60;99.90
36352;DHT22;22382;44.768;17.206;2022-10-16T16:58:37;16.50;99.90
36352;DHT22;22382;44.768;17.206;2022-10-16T17:01:04;16.50;99.90
36352;DHT22;22382;44.768;17.206;2022-10-16T17:03:46;16.50;99.90
36352;DHT22;22382;44.768;17.206;2022-10-16T17:06:13;16.40;99.90
36352;DHT22;22382;44.768;17.206;2022-10-16T17:08:47;16.40;99.90
36352;DHT22;22382;44.768;17.206;2022-10-16T17:11:17;16.30;99.90
36352;DHT22;22382;44.768;17.206;2022-10-16T17:13:44;16.30;99.90
36352;DHT22;22382;44.768;17.206;2022-10-16T17:16:12;16.30;99.90
36352;DHT22;22382;44.768;17.206;2022-10-16T17:18:39;16.20;99.90
36352;DHT22;22382;44.768;17.206;2022-10-16T17:21:08;16.10;99.90
36352;DHT22;22382;44.768;17.206;2022-10-16T17:23:36;16.10;99.90
36352;DHT22;22382;44.768;17.206;2022-10-16T17:26:08;15.90;99.90
36352;DHT22;22382;44.768;17.206;2022-10-16T17:28:35;15.90;99.90
36352;DHT22;22382;44.768;17.206;2022-10-16T17:31:18;15.80;99.90
36352;DHT22;22382;44.768;17.206;2022-10-16T17:33:45;15.70;99.90
36352;DHT22;22382;44.768;17.206;2022-10-16T17:36:12;15.70;99.90
36352;DHT22;22382;44.768;17.206;2022-10-16T17:38:41;15.60;99.90
36352;DHT22;22382;44.768;17.206;2022-10-16T17:41:11;15.60;99.90
36352;DHT22;22382;44.768;17.206;2022-10-16T17:43:38;15.50;99.90
36352;DHT22;22382;44.768;17.206;2022-10-16T17:46:07;15.40;99.90